createdAt,value
2023-09-08T00:00:52.824Z,18.92
2023-09-08T00:03:24.242Z,18.89
2023-09-08T00:05:53.768Z,18.84
2023-09-08T00:08:23.168Z,19.01
2023-09-08T00:10:52.559Z,18.56
2023-09-08T00:13:22.093Z,18.58
2023-09-08T00:15:51.269Z,18.71
2023-09-08T00:18:20.626Z,19.08
2023-09-08T00:20:51.390Z,19.14
2023-09-08T00:23:20.798Z,19.16
2023-09-08T00:25:51.755Z,19.06
2023-09-08T00:28:21.401Z,19.16
2023-09-08T00:30:51.158Z,19.07
2023-09-08T00:33:20.715Z,19.09
2023-09-08T00:35:54.961Z,19.09
2023-09-08T00:38:24.325Z,19.18
2023-09-08T00:40:53.670Z,19.14
2023-09-08T00:43:23.357Z,19.29
2023-09-08T00:45:53.037Z,19.18
2023-09-08T00:48:22.897Z,19.22
2023-09-08T00:50:53.884Z,19.09
2023-09-08T00:53:24.385Z,18.89
2023-09-08T00:55:54.347Z,18.81
2023-09-08T00:58:23.887Z,18.75
2023-09-08T01:00:53.529Z,18.91
2023-09-08T01:03:23.252Z,19.08
2023-09-08T01:05:55.237Z,18.90
2023-09-08T01:08:25.144Z,18.67
2023-09-08T01:10:54.753Z,17.94
2023-09-08T01:13:25.324Z,18.21
2023-09-08T01:15:54.764Z,18.30
2023-09-08T01:18:24.516Z,18.45
2023-09-08T01:21:40.498Z,18.42
2023-09-08T01:24:30.262Z,18.22
2023-09-08T01:27:02.584Z,18.40
2023-09-08T01:29:33.304Z,18.22
2023-09-08T01:32:05.717Z,17.74
2023-09-08T01:34:35.933Z,17.26
2023-09-08T01:37:05.850Z,17.43
2023-09-08T01:39:37.317Z,17.90
2023-09-08T01:42:08.849Z,18.10
2023-09-08T01:44:38.901Z,18.31
2023-09-08T01:47:08.492Z,18.41
2023-09-08T01:49:37.585Z,18.23
2023-09-08T01:52:07.927Z,18.72
2023-09-08T01:54:38.046Z,18.22
2023-09-08T01:57:09.341Z,18.35
2023-09-08T01:59:39.402Z,18.21
2023-09-08T02:02:09.204Z,18.23
2023-09-08T02:04:38.946Z,18.08
2023-09-08T02:07:08.373Z,18.11
2023-09-08T02:09:39.151Z,18.07
2023-09-08T02:12:10.467Z,18.05
2023-09-08T02:14:40.713Z,18.19
2023-09-08T02:17:11.830Z,18.28
2023-09-08T02:19:40.961Z,18.30
2023-09-08T02:22:10.468Z,17.53
2023-09-08T02:24:40.105Z,17.69
2023-09-08T02:27:11.713Z,17.92
2023-09-08T02:29:41.391Z,17.88
2023-09-08T02:32:10.518Z,17.80
2023-09-08T02:34:40.203Z,17.85
2023-09-08T02:37:10.755Z,17.90
2023-09-08T02:39:40.398Z,17.82
2023-09-08T02:42:11.904Z,17.94
2023-09-08T02:44:41.569Z,17.87
2023-09-08T02:47:11.585Z,17.93
2023-09-08T02:49:42.607Z,18.09
2023-09-08T02:52:12.778Z,17.94
2023-09-08T02:54:42.220Z,17.91
2023-09-08T02:57:13.234Z,17.89
2023-09-08T02:59:43.764Z,17.60
2023-09-08T03:02:13.073Z,17.51
2023-09-08T03:04:43.131Z,17.41
2023-09-08T03:07:13.831Z,17.14
2023-09-08T03:09:43.173Z,17.08
2023-09-08T03:12:14.247Z,16.95
2023-09-08T03:14:43.531Z,17.14
2023-09-08T03:17:13.953Z,17.02
2023-09-08T03:19:47.741Z,16.89
2023-09-08T03:22:17.019Z,16.68
2023-09-08T03:24:46.164Z,16.83
2023-09-08T03:27:17.182Z,16.41
2023-09-08T03:29:46.420Z,16.55
2023-09-08T03:32:15.725Z,16.66
2023-09-08T03:34:45.189Z,16.65
2023-09-08T03:37:14.672Z,16.63
2023-09-08T03:39:44.049Z,16.57
2023-09-08T03:42:16.874Z,16.66
2023-09-08T03:44:46.280Z,16.44
2023-09-08T03:47:16.089Z,16.29
2023-09-08T03:49:45.506Z,16.70
2023-09-08T03:52:15.604Z,16.39
2023-09-08T03:54:45.979Z,16.44
2023-09-08T03:57:16.983Z,16.62
2023-09-08T03:59:46.968Z,16.74
2023-09-08T04:02:16.398Z,16.69
2023-09-08T04:04:45.573Z,16.26
2023-09-08T04:07:15.244Z,16.34
2023-09-08T04:09:45.321Z,16.26
2023-09-08T04:12:14.624Z,16.16
2023-09-08T04:14:45.639Z,16.27
2023-09-08T04:17:15.035Z,16.30
2023-09-08T04:19:44.591Z,15.96
2023-09-08T04:22:14.157Z,15.93
2023-09-08T04:24:43.750Z,16.09
2023-09-08T04:27:15.529Z,16.30
2023-09-08T04:29:47.471Z,16.22
2023-09-08T04:32:17.090Z,16.14
2023-09-08T04:34:46.478Z,16.26
2023-09-08T04:37:15.933Z,16.32
2023-09-08T04:39:45.528Z,16.62
2023-09-08T04:42:15.892Z,16.42
2023-09-08T04:44:48.389Z,16.03
2023-09-08T04:47:18.094Z,15.70
2023-09-08T04:49:47.889Z,15.88
2023-09-08T04:52:17.352Z,15.96
2023-09-08T04:54:46.615Z,16.22
2023-09-08T04:57:22.930Z,16.49
2023-09-08T04:59:56.746Z,16.75
2023-09-08T05:02:26.578Z,16.54
2023-09-08T05:04:56.543Z,16.15
2023-09-08T05:07:26.165Z,15.72
2023-09-08T05:09:57.964Z,15.67
2023-09-08T05:12:30.977Z,15.68
2023-09-08T05:15:07.645Z,16.37
2023-09-08T05:17:39.626Z,16.72
2023-09-08T05:20:10.239Z,17.06
2023-09-08T05:22:39.346Z,17.25
2023-09-08T05:25:10.844Z,17.62
2023-09-08T05:27:40.632Z,17.43
2023-09-08T05:30:13.447Z,17.81
2023-09-08T05:32:42.811Z,18.17
2023-09-08T05:35:12.369Z,18.22
2023-09-08T05:37:42.901Z,18.10
2023-09-08T05:40:12.834Z,18.04
2023-09-08T05:42:44.607Z,18.14
2023-09-08T05:45:17.168Z,18.50
2023-09-08T05:47:47.372Z,18.50
2023-09-08T05:50:18.084Z,18.57
2023-09-08T05:52:48.071Z,18.68
2023-09-08T05:55:17.758Z,19.00
2023-09-08T05:57:46.852Z,18.99
2023-09-08T06:00:19.978Z,19.10
2023-09-08T06:02:53.442Z,19.64
2023-09-08T06:05:23.722Z,19.93
2023-09-08T06:08:05.816Z,19.93
2023-09-08T06:10:40.713Z,19.80
2023-09-08T06:13:10.610Z,19.57
2023-09-08T06:15:41.469Z,19.79
2023-09-08T06:18:11.108Z,19.70
2023-09-08T06:20:46.708Z,20.25
2023-09-08T06:23:16.893Z,20.22
2023-09-08T06:25:46.235Z,20.39
2023-09-08T06:28:16.207Z,20.41
2023-09-08T06:30:47.700Z,19.96
2023-09-08T06:33:17.242Z,20.51
2023-09-08T06:35:46.911Z,21.01
2023-09-08T06:38:16.786Z,21.10
2023-09-08T06:40:46.614Z,21.56
2023-09-08T06:43:16.363Z,21.29
2023-09-08T06:45:55.316Z,21.49
2023-09-08T06:48:26.579Z,21.34
2023-09-08T06:50:58.023Z,21.72
2023-09-08T06:53:28.894Z,22.13
2023-09-08T06:55:58.449Z,21.98
2023-09-08T06:58:27.753Z,22.88
2023-09-08T07:00:59.279Z,22.86
2023-09-08T07:03:28.969Z,23.16
2023-09-08T07:05:59.767Z,23.81
2023-09-08T07:08:29.901Z,23.66
2023-09-08T07:11:00.776Z,23.33
2023-09-08T07:13:30.209Z,24.20
2023-09-08T07:16:02.613Z,24.32
2023-09-08T07:18:37.376Z,24.80
2023-09-08T07:21:08.052Z,24.60
2023-09-08T07:23:38.508Z,25.18
2023-09-08T07:26:10.760Z,25.29
2023-09-08T07:28:40.732Z,25.84
2023-09-08T07:31:16.100Z,25.88
2023-09-08T07:33:48.065Z,25.20
2023-09-08T07:36:18.403Z,25.45
2023-09-08T07:38:48.838Z,25.96
2023-09-08T07:41:18.963Z,25.79
2023-09-08T07:43:48.502Z,25.72
2023-09-08T07:46:23.993Z,26.18
2023-09-08T07:48:53.395Z,25.52
2023-09-08T07:51:22.409Z,25.79
2023-09-08T07:53:51.528Z,25.63
2023-09-08T07:56:21.111Z,25.36
2023-09-08T07:58:50.302Z,25.21
2023-09-08T08:01:19.770Z,25.12
2023-09-08T08:03:50.754Z,24.94
2023-09-08T08:06:20.006Z,25.89
2023-09-08T08:08:49.735Z,26.90
2023-09-08T08:11:20.194Z,26.89
2023-09-08T08:13:49.735Z,25.98
2023-09-08T08:16:20.227Z,26.40
2023-09-08T08:18:51.524Z,27.37
2023-09-08T08:21:21.040Z,27.52
2023-09-08T08:23:50.331Z,27.40
2023-09-08T08:26:19.778Z,26.98
2023-09-08T08:28:49.299Z,25.61
2023-09-08T08:31:18.792Z,25.52
2023-09-08T08:33:48.246Z,26.23
2023-09-08T08:36:19.531Z,26.64
2023-09-08T08:38:48.952Z,27.11
2023-09-08T08:41:18.525Z,27.37
2023-09-08T08:43:48.666Z,27.28
2023-09-08T08:46:21.896Z,27.57
2023-09-08T08:48:55.359Z,28.10
2023-09-08T08:51:26.861Z,28.34
2023-09-08T08:53:56.366Z,28.35
2023-09-08T08:56:26.255Z,27.69
2023-09-08T08:58:58.485Z,27.16
2023-09-08T09:01:29.806Z,26.92
2023-09-08T09:04:00.997Z,26.85
2023-09-08T09:06:32.257Z,26.58
2023-09-08T09:09:02.758Z,27.00
2023-09-08T09:11:32.816Z,26.55
2023-09-08T09:14:02.609Z,26.16
2023-09-08T09:16:31.844Z,26.12
2023-09-08T09:19:02.917Z,26.20
2023-09-08T09:21:45.793Z,26.83
2023-09-08T09:24:20.948Z,26.75
2023-09-08T09:26:55.528Z,27.10
2023-09-08T09:29:24.863Z,27.19
2023-09-08T09:31:55.778Z,26.92
2023-09-08T09:34:25.832Z,26.91
2023-09-08T09:36:56.984Z,26.92
2023-09-08T09:39:28.044Z,26.90
2023-09-08T09:41:58.385Z,27.14
2023-09-08T09:44:29.224Z,27.00
2023-09-08T09:46:58.761Z,27.24
2023-09-08T09:49:33.390Z,27.38
2023-09-08T09:52:04.180Z,27.41
2023-09-08T09:54:33.525Z,27.92
2023-09-08T09:57:04.409Z,27.73
2023-09-08T09:59:34.813Z,27.64
2023-09-08T10:02:05.016Z,27.20
2023-09-08T10:04:35.144Z,27.00
2023-09-08T10:07:06.543Z,26.69
2023-09-08T10:09:35.759Z,26.61
2023-09-08T10:12:07.408Z,26.38
2023-09-08T10:14:38.600Z,26.34
2023-09-08T10:17:11.307Z,26.14
2023-09-08T10:19:45.612Z,26.10
2023-09-08T10:22:22.092Z,25.98
2023-09-08T10:24:53.124Z,26.04
2023-09-08T10:27:25.258Z,26.00
2023-09-08T10:29:55.986Z,25.89
2023-09-08T10:32:25.866Z,25.48
2023-09-08T10:34:58.877Z,25.52
2023-09-08T10:37:30.935Z,25.50
2023-09-08T10:40:23.858Z,25.60
2023-09-08T10:43:08.943Z,25.95
2023-09-08T10:45:38.231Z,25.88
2023-09-08T10:48:08.985Z,26.73
2023-09-08T10:50:42.381Z,26.84
2023-09-08T10:53:28.578Z,26.71
2023-09-08T10:56:16.705Z,26.87
2023-09-08T10:58:51.800Z,27.11
2023-09-08T11:01:28.041Z,27.35
2023-09-08T11:03:57.830Z,27.52
2023-09-08T11:06:32.060Z,27.38
2023-09-08T11:09:09.352Z,27.39
2023-09-08T11:11:39.237Z,27.50
2023-09-08T11:14:08.805Z,27.38
2023-09-08T11:16:38.719Z,27.89
2023-09-08T11:19:08.252Z,29.10
2023-09-08T11:21:40.104Z,28.90
2023-09-08T11:24:16.247Z,27.88
2023-09-08T11:26:47.946Z,27.36
2023-09-08T11:29:18.179Z,27.03
2023-09-08T11:31:56.314Z,27.70
2023-09-08T11:34:26.270Z,28.77
2023-09-08T11:36:55.685Z,30.49
2023-09-08T11:39:27.926Z,31.35
2023-09-08T11:41:57.892Z,31.59
2023-09-08T11:44:27.361Z,30.59
2023-09-08T11:46:59.189Z,30.65
2023-09-08T11:49:28.323Z,31.53
2023-09-08T11:51:58.768Z,32.02
2023-09-08T11:54:31.276Z,30.39
2023-09-08T11:57:02.247Z,31.05
2023-09-08T11:59:34.950Z,30.99
2023-09-08T12:02:05.318Z,31.13
2023-09-08T12:04:37.877Z,29.74
2023-09-08T12:07:07.276Z,29.53
2023-09-08T12:09:38.496Z,30.14
2023-09-08T12:12:13.813Z,31.49
2023-09-08T12:14:46.646Z,30.42
2023-09-08T12:17:19.312Z,30.96
2023-09-08T12:19:48.723Z,29.98
2023-09-08T12:22:23.799Z,29.63
2023-09-08T12:25:00.410Z,30.02
2023-09-08T12:27:30.141Z,29.62
2023-09-08T12:30:05.588Z,29.41
2023-09-08T12:32:35.360Z,28.89
2023-09-08T12:35:06.877Z,27.67
2023-09-08T12:37:37.647Z,27.95
2023-09-08T12:40:11.864Z,27.99
2023-09-08T12:42:42.825Z,27.48
2023-09-08T12:45:28.910Z,27.71
2023-09-08T12:48:03.354Z,27.99
2023-09-08T12:50:33.119Z,28.25
2023-09-08T12:53:02.657Z,27.93
2023-09-08T12:55:33.616Z,27.96
2023-09-08T12:58:03.654Z,27.10
2023-09-08T13:00:33.087Z,28.25
2023-09-08T13:03:03.484Z,28.00
2023-09-08T13:05:34.951Z,27.13
2023-09-08T13:08:04.788Z,27.54
2023-09-08T13:10:35.487Z,29.08
2023-09-08T13:13:05.504Z,29.79
2023-09-08T13:15:34.888Z,28.80
2023-09-08T13:18:04.248Z,28.55
2023-09-08T13:20:33.793Z,28.36
2023-09-08T13:23:03.141Z,27.70
2023-09-08T13:25:32.430Z,27.79
2023-09-08T13:28:03.800Z,27.92
2023-09-08T13:30:33.323Z,27.85
2023-09-08T13:33:02.817Z,27.41
2023-09-08T13:35:32.037Z,27.53
2023-09-08T13:38:04.376Z,27.21
2023-09-08T13:40:34.007Z,27.25
2023-09-08T13:43:05.072Z,27.08
2023-09-08T13:45:34.268Z,26.79
2023-09-08T13:48:05.863Z,27.41
2023-09-08T13:50:37.585Z,27.00
2023-09-08T13:53:09.616Z,26.44
2023-09-08T13:55:43.203Z,26.32
2023-09-08T13:58:15.399Z,26.49
2023-09-08T14:00:46.061Z,26.68
2023-09-08T14:03:21.385Z,26.57
2023-09-08T14:05:54.421Z,26.59
2023-09-08T14:13:30.871Z,26.40
2023-09-08T14:16:02.803Z,26.23
2023-09-08T14:18:32.937Z,26.54
2023-09-08T14:21:02.323Z,26.59
2023-09-08T14:23:32.495Z,26.64
2023-09-08T14:26:02.188Z,26.45
2023-09-08T14:28:35.391Z,25.78
2023-09-08T14:31:04.936Z,25.85
2023-09-08T14:33:35.338Z,25.89
2023-09-08T14:36:05.398Z,25.63
2023-09-08T14:38:35.046Z,26.17
2023-09-08T14:41:04.224Z,26.63
2023-09-08T14:43:35.477Z,26.76
2023-09-08T14:46:05.496Z,26.84
2023-09-08T14:48:34.756Z,27.21
2023-09-08T14:51:05.042Z,27.34
2023-09-08T14:53:34.550Z,27.58
2023-09-08T14:56:06.093Z,27.60
2023-09-08T14:58:37.102Z,27.22
2023-09-08T15:01:08.591Z,27.38
2023-09-08T15:03:38.326Z,27.43
2023-09-08T15:06:08.332Z,27.12
2023-09-08T15:08:37.621Z,26.88
2023-09-08T15:11:07.249Z,26.53
2023-09-08T15:13:38.740Z,26.77
2023-09-08T15:16:08.180Z,26.68
2023-09-08T15:18:37.678Z,26.96
2023-09-08T15:21:07.016Z,26.59
2023-09-08T15:23:37.019Z,26.33
2023-09-08T15:26:06.804Z,26.45
2023-09-08T15:28:37.980Z,26.14
2023-09-08T15:31:07.951Z,25.93
2023-09-08T15:33:37.410Z,26.57
2023-09-08T15:36:07.857Z,26.60
2023-09-08T15:38:37.088Z,26.23
2023-09-08T15:41:21.487Z,26.44
2023-09-08T15:43:53.896Z,26.46
2023-09-08T15:46:23.480Z,25.96
2023-09-08T15:48:52.945Z,25.91
2023-09-08T15:51:22.738Z,25.82
2023-09-08T15:53:51.804Z,25.85
2023-09-08T15:56:21.332Z,25.80
2023-09-08T15:58:51.952Z,25.64
2023-09-08T16:01:21.162Z,25.62
2023-09-08T16:03:50.705Z,25.60
2023-09-08T16:06:20.481Z,25.57
2023-09-08T16:08:49.686Z,25.75
2023-09-08T16:11:19.269Z,25.86
2023-09-08T16:13:48.525Z,25.58
2023-09-08T16:16:19.686Z,25.47
2023-09-08T16:18:49.262Z,25.49
2023-09-08T16:21:18.410Z,25.49
2023-09-08T16:23:48.000Z,25.36
2023-09-08T16:26:17.163Z,25.17
2023-09-08T16:28:46.827Z,24.90
2023-09-08T16:31:17.636Z,24.70
2023-09-08T16:33:48.795Z,24.55
2023-09-08T16:36:18.310Z,24.14
2023-09-08T16:38:47.585Z,24.09
2023-09-08T16:41:16.826Z,24.06
2023-09-08T16:43:46.094Z,24.05
2023-09-08T16:46:15.829Z,23.97
2023-09-08T16:48:45.293Z,23.99
2023-09-08T16:51:16.013Z,23.76
2023-09-08T16:53:45.338Z,23.81
2023-09-08T16:56:14.563Z,23.79
2023-09-08T16:58:44.314Z,23.67
2023-09-08T17:01:13.870Z,23.53
2023-09-08T17:03:43.454Z,23.36
2023-09-08T17:06:13.532Z,23.33
2023-09-08T17:08:44.552Z,23.48
2023-09-08T17:11:13.811Z,23.41
2023-09-08T17:13:43.540Z,23.47
2023-09-08T17:16:13.028Z,23.23
2023-09-08T17:18:42.370Z,23.31
2023-09-08T17:21:11.937Z,23.31
2023-09-08T17:23:41.361Z,23.09
2023-09-08T17:26:13.354Z,22.63
2023-09-08T17:28:43.162Z,22.58
2023-09-08T17:31:12.408Z,22.63
2023-09-08T17:33:41.666Z,22.51
2023-09-08T17:36:11.578Z,22.58
2023-09-08T17:38:43.582Z,22.50
2023-09-08T17:41:14.274Z,22.68
2023-09-08T17:43:43.637Z,22.33
2023-09-08T17:46:12.913Z,22.62
2023-09-08T17:48:42.311Z,22.76
2023-09-08T17:51:11.644Z,22.58
2023-09-08T17:53:40.702Z,22.47
2023-09-08T17:56:10.087Z,22.34
2023-09-08T17:58:41.132Z,22.38
2023-09-08T18:01:10.971Z,22.35
2023-09-08T18:03:40.943Z,22.29
2023-09-08T18:06:11.002Z,22.07
2023-09-08T18:08:40.471Z,22.10
2023-09-08T18:11:09.911Z,22.16
2023-09-08T18:13:40.991Z,21.77
2023-09-08T18:16:10.760Z,22.06
2023-09-08T18:18:39.987Z,21.68
2023-09-08T18:21:09.539Z,21.01
2023-09-08T18:23:39.113Z,21.40
2023-09-08T18:26:08.819Z,21.52
2023-09-08T18:28:38.969Z,21.40
2023-09-08T18:31:10.429Z,21.40
2023-09-08T18:33:40.362Z,21.32
2023-09-08T18:36:10.179Z,21.35
2023-09-08T18:38:39.807Z,21.43
2023-09-08T18:41:10.165Z,21.25
2023-09-08T18:43:39.738Z,21.08
2023-09-08T18:46:11.028Z,21.29
2023-09-08T18:48:40.647Z,21.17
2023-09-08T18:51:10.718Z,21.08
2023-09-08T18:53:40.296Z,21.13
2023-09-08T18:56:09.615Z,21.34
2023-09-08T18:58:39.490Z,21.20
2023-09-08T19:01:10.905Z,21.26
2023-09-08T19:03:41.970Z,21.19
2023-09-08T19:06:12.681Z,21.10
2023-09-08T19:08:42.277Z,20.94
2023-09-08T19:11:11.999Z,20.97
2023-09-08T19:13:41.027Z,21.20
2023-09-08T19:16:11.836Z,21.36
2023-09-08T19:18:41.300Z,21.41
2023-09-08T19:21:10.635Z,21.39
2023-09-08T19:23:39.912Z,20.33
2023-09-08T19:26:09.746Z,19.46
2023-09-08T19:28:39.153Z,19.77
2023-09-08T19:31:08.812Z,20.18
2023-09-08T19:33:39.826Z,20.25
2023-09-08T19:36:09.514Z,20.20
2023-09-08T19:38:39.180Z,20.45
2023-09-08T19:41:08.453Z,20.62
2023-09-08T19:44:11.108Z,20.69
2023-09-08T19:46:40.721Z,20.69
2023-09-08T19:49:12.104Z,20.30
2023-09-08T19:51:41.332Z,20.28
2023-09-08T19:54:10.688Z,20.20
2023-09-08T19:56:39.968Z,20.43
2023-09-08T19:59:09.266Z,20.51
2023-09-08T20:01:38.463Z,20.48
2023-09-08T20:04:11.688Z,20.23
2023-09-08T20:06:41.443Z,20.04
2023-09-08T20:09:13.427Z,19.83
2023-09-08T20:11:43.055Z,20.10
2023-09-08T20:14:14.430Z,19.79
2023-09-08T20:16:44.030Z,19.68
2023-09-08T20:19:15.190Z,19.74
2023-09-08T20:21:44.678Z,19.93
2023-09-08T20:24:16.566Z,19.88
2023-09-08T20:26:45.832Z,20.04
2023-09-08T20:29:16.143Z,19.59
2023-09-08T20:31:45.465Z,19.53
2023-09-08T20:34:17.641Z,19.47
2023-09-08T20:36:46.805Z,19.63
2023-09-08T20:39:16.252Z,19.58
2023-09-08T20:41:45.753Z,19.78
2023-09-08T20:44:15.808Z,18.96
2023-09-08T20:46:46.921Z,19.09
2023-09-08T20:49:18.036Z,18.77
2023-09-08T20:51:47.587Z,19.28
2023-09-08T20:54:16.860Z,19.26
2023-09-08T20:56:46.216Z,19.43
2023-09-08T20:59:15.786Z,19.43
2023-09-08T21:01:45.574Z,19.14
2023-09-08T21:04:15.339Z,19.35
2023-09-08T21:06:46.312Z,19.52
2023-09-08T21:09:15.605Z,19.41
2023-09-08T21:11:46.765Z,19.73
2023-09-08T21:14:16.268Z,19.58
2023-09-08T21:16:45.885Z,19.42
2023-09-08T21:19:15.606Z,19.70
2023-09-08T21:21:48.484Z,19.96
2023-09-08T21:24:17.871Z,19.96
2023-09-08T21:26:48.896Z,20.15
2023-09-08T21:29:20.284Z,19.85
2023-09-08T21:31:51.179Z,19.94
2023-09-08T21:34:21.814Z,19.44
2023-09-08T21:36:53.460Z,19.56
2023-09-08T21:39:23.507Z,19.63
2023-09-08T21:41:52.922Z,19.56
2023-09-08T21:44:22.804Z,19.53
2023-09-08T21:46:52.091Z,19.40
2023-09-08T21:49:22.576Z,19.18
2023-09-08T21:51:53.945Z,19.33
2023-09-08T21:54:23.621Z,19.50
2023-09-08T21:56:52.868Z,19.37
2023-09-08T21:59:22.537Z,19.49
2023-09-08T22:01:51.907Z,19.49
2023-09-08T22:04:23.443Z,19.49
2023-09-08T22:06:54.345Z,18.91
2023-09-08T22:09:23.704Z,18.30
2023-09-08T22:11:53.434Z,18.66
2023-09-08T22:14:22.723Z,19.06
2023-09-08T22:16:52.029Z,18.93
2023-09-08T22:19:21.227Z,19.03
2023-09-08T22:21:50.738Z,19.02
2023-09-08T22:24:21.663Z,19.25
2023-09-08T22:26:50.847Z,19.25
2023-09-08T22:29:20.332Z,19.24
2023-09-08T22:31:50.072Z,19.29
2023-09-08T22:34:21.052Z,19.23
2023-09-08T22:36:50.716Z,18.85
2023-09-08T22:39:21.405Z,18.59
2023-09-08T22:41:51.555Z,18.73
2023-09-08T22:44:21.320Z,18.80
2023-09-08T22:46:50.861Z,18.84
2023-09-08T22:49:20.146Z,19.09
2023-09-08T22:51:49.903Z,18.90
2023-09-08T22:54:20.970Z,18.68
2023-09-08T22:56:50.331Z,18.87
2023-09-08T22:59:19.819Z,19.05
2023-09-08T23:01:49.316Z,19.16
2023-09-08T23:04:18.692Z,19.07
2023-09-08T23:06:48.032Z,18.92
2023-09-08T23:09:17.535Z,18.89
2023-09-08T23:11:48.381Z,18.32
2023-09-08T23:14:17.796Z,18.27
2023-09-08T23:16:47.413Z,18.39
2023-09-08T23:19:17.951Z,17.97
2023-09-08T23:21:48.043Z,17.44
2023-09-08T23:24:17.318Z,17.95
2023-09-08T23:26:48.246Z,17.51
2023-09-08T23:29:17.627Z,17.98
2023-09-08T23:31:46.716Z,18.34
2023-09-08T23:34:16.180Z,18.00
2023-09-08T23:36:45.631Z,17.79
2023-09-08T23:39:14.955Z,17.76
2023-09-08T23:41:44.554Z,17.80
2023-09-08T23:44:15.607Z,17.93
2023-09-08T23:46:44.914Z,17.84
2023-09-08T23:49:14.375Z,17.74
2023-09-08T23:51:43.787Z,17.72
2023-09-08T23:54:12.928Z,17.43
2023-09-08T23:56:42.725Z,17.31
2023-09-08T23:59:12.001Z,17.76
